Diodes Company Profile (NASDAQ:DIOD)

About Diodes

Diodes logoDiodes Incorporated is a global manufacturer and supplier of application-specific standard products within the discrete, logic, analog and mixed-signal semiconductor markets, serving the consumer electronics, computing, communications, industrial and automotive markets. The Company's products include diodes; rectifiers; transistors; metal-oxide semiconductor field-effect transistors (MOSFETs); protection devices; amplifiers and comparators; Hall-effect and temperature sensors, and power management devices, including light emitting diode (LED) drivers, alternating current (AC)-direct current (DC) and DC-DC switching, linear voltage regulators and voltage references, along with special function devices, such as universal serial bus (USB) power switches, load switches, voltage supervisors and motor controllers. It also holds interests in Pericom Semiconductor Corporation, which designs, develops and markets integrated circuits (ICs) and frequency control products (FCPs).

Industry, Sector and Symbol:
  • Sector: Computer and Technology
  • Industry: Semiconductor - Integrated Circuits
  • Sub-Industry: Semiconductors
  • Exchange: NASDAQ
  • Symbol: DIOD
  • CUSIP: 25454310
Key Metrics:
  • Previous Close: $19.74
  • 50 Day Moving Average: $18.73
  • 200 Day Moving Average: $18.87
  • Trailing P/E Ratio: 459.07
  • Foreward P/E Ratio: 15.30
  • P/E Growth: 0.80
  • Market Cap: $963.55M
  • Outstanding Shares: 48,812,000
  • Beta: 1.49
Additional Links:
Companies Related to Diodes:

Analyst Ratings

Consensus Ratings for Diodes (NASDAQ:DIOD) (?)
Ratings Breakdown: 2 Buy Ratings
Consensus Rating:Buy (Score: 3.00)
Consensus Price Target: $23.50 (19.05% upside)

Analysts' Ratings History for Diodes (NASDAQ:DIOD)
Show:
DateFirmActionRatingPrice TargetDetails
5/6/2016Robert W. BairdReiterated RatingBuyView Rating Details
2/17/2016Topeka Capital MarketsLower Price TargetBuy$25.00 -> $22.00View Rating Details
8/7/2015Benchmark Co.Lower Price Target$35.00 -> $30.00View Rating Details
6/7/2015Longbow ResearchReiterated RatingBuy -> NeutralView Rating Details
3/27/2015Raymond James Financial Inc.DowngradeStrong-Buy -> Outperform$33.00 -> $31.00View Rating Details
(Data available from 8/23/2014 forward)

Earnings

Earnings History for Diodes (NASDAQ:DIOD)
DateQuarterConsensus EstimateActual EPSRevenue EstimateActual RevenueRelease LinkConference CallDetails
11/3/2016        
8/9/2016Q216$0.20$0.20$234.92 million$236.60 millionViewListenView Earnings Details
5/5/2016Q116$0.10$0.12$224.82 million$222.70 millionViewListenView Earnings Details
2/16/2016Q415$0.06$0.14$202.87 million$214.40 millionViewListenView Earnings Details
11/5/2015Q315$0.30$0.13$216.36 million$208.89 millionViewListenView Earnings Details
8/6/2015Q215$0.33$0.34$220.43 million$219.50 millionViewListenView Earnings Details
5/7/2015Q115$0.25$0.26$213.40 million$206.20 millionViewListenView Earnings Details
2/11/2015Q414$0.34$0.34$224.46 million$223.70 millionViewListenView Earnings Details
11/6/2014Q314$0.42$0.43$233.70 million$233.78 millionViewListenView Earnings Details
8/7/2014Q214$0.35$0.38$222.93 million$223.20 millionViewListenView Earnings Details
5/8/2014Q114$0.23$0.26$208.73 million$209.99 millionViewListenView Earnings Details
2/11/2014Q413$0.21$0.24$212.46 million$211.00 millionViewListenView Earnings Details
11/12/2013Q313$0.34$0.28$225.87 million$224.50 millionViewListenView Earnings Details
8/7/2013Q2 2013($0.01)$0.33$156.88 million$214.40 millionViewListenView Earnings Details
5/9/2013Q1 2013$0.07$0.16$176.36 million$176.96 millionViewListenView Earnings Details
2/13/2013Q4 2012$0.06$0.13$163.60 million$163.30 millionViewN/AView Earnings Details
11/8/2012Q312$0.21$0.20$166.69 million$166.60 millionViewN/AView Earnings Details
8/8/2012$0.19$0.14ViewN/AView Earnings Details
5/8/2012$0.09$0.09ViewN/AView Earnings Details
11/8/2011$0.34$0.34ViewN/AView Earnings Details
8/9/2011$0.43$0.43ViewN/AView Earnings Details
5/9/2011$0.47$0.47ViewN/AView Earnings Details
2/9/2011$0.50$0.55ViewN/AView Earnings Details
(Data available from 1/1/2011 forward)

Estimates

Earnings Estimates for Diodes (NASDAQ:DIOD)
Current Year EPS Consensus Estimate: $0.86 EPS
Next Year EPS Consensus Estimate: $1.29 EPS

Dividends

Dividend History for Diodes (NASDAQ:DIOD)
No dividend announcements for this company have been tracked by MarketBeat.com

Insider Trades

Insider Trading History for Diodes (NASDAQ:DIOD)
Transaction DateInsider NameTitleBuy/SellNumber of SharesAverage Share PriceTotal TransactionDetails
7/5/2016Clemente BeltranVPSell221$16.95$3,745.95View SEC Filing  
7/5/2016Keh Shew LuCEOSell8,969$16.95$152,024.55View SEC Filing  
7/5/2016Richard Dallas WhiteCFOSell2,750$16.92$46,530.00View SEC Filing  
5/27/2016Clemente BeltranVPSell874$18.00$15,732.00View SEC Filing  
5/27/2016Keh Shew LuCEOSell19,736$18.01$355,445.36View SEC Filing  
5/27/2016Mark A KingSVPSell10,000$17.95$179,500.00View SEC Filing  
5/27/2016Richard Dallas WhiteCFOSell12,000$17.95$215,400.00View SEC Filing  
3/21/2016Alex Chi Ming HuiVPSell10,000$20.01$200,100.00View SEC Filing  
2/29/2016Alex Chi Ming HuiVPSell20,000$18.84$376,800.00View SEC Filing  
1/5/2016Clemente BeltranVPSell330$22.33$7,368.90View SEC Filing  
12/17/2015Francis TangVPSell11,789$24.00$282,936.00View SEC Filing  
7/2/2015Francis TangVPSell2,500$23.02$57,550.00View SEC Filing  
7/2/2015Richard Dallas WhiteCFOSell2,750$23.02$63,305.00View SEC Filing  
6/5/2015John M StichDirectorSell6,000$25.59$153,540.00View SEC Filing  
6/3/2015John M StichDirectorSell3,000$26.10$78,300.00View SEC Filing  
6/2/2015John M StichDirectorSell3,000$26.23$78,690.00View SEC Filing  
6/1/2015John M StichDirectorSell3,000$26.53$79,590.00View SEC Filing  
5/27/2015Julie HollandVPSell5,375$25.22$135,557.50View SEC Filing  
5/27/2015Mark A KingSVPSell7,000$25.22$176,540.00View SEC Filing  
5/27/2015Richard Dallas WhiteCFOSell7,500$25.22$189,150.00View SEC Filing  
5/19/2015Raymond SoongDirectorSell70,000$26.53$1,857,100.00View SEC Filing  
5/18/2015Raymond SoongDirectorSell10,000$27.08$270,800.00View SEC Filing  
3/23/2015Keh Shew LuCEOSell75,000$29.85$2,238,750.00View SEC Filing  
3/17/2015Keh Shew LuCEOSell35,784$29.75$1,064,574.00View SEC Filing  
3/16/2015Keh Shew LuCEOSell26,000$29.75$773,500.00View SEC Filing  
3/16/2015Mark A KingSVPSell20,471$29.25$598,776.75View SEC Filing  
3/16/2015Michael R GiordanoDirectorSell11,288$29.65$334,689.20View SEC Filing  
3/12/2015John M StichDirectorSell4,400$29.06$127,864.00View SEC Filing  
3/9/2015C H ChenDirectorSell9,800$29.00$284,200.00View SEC Filing  
2/12/2015John M StichDirectorSell4,400$28.00$123,200.00View SEC Filing  
2/6/2015C H ChenDirectorSell10,000$28.00$280,000.00View SEC Filing  
8/26/2014Corp SilitekMajor ShareholderSell25,787$25.63$660,920.81View SEC Filing  
8/25/2014Corp SilitekMajor ShareholderSell274,213$25.75$7,060,984.75View SEC Filing  
7/22/2014C H ChenDirectorSell15,000$30.00$450,000.00View SEC Filing  
7/22/2014Julie HollandVPSell5,200$30.00$156,000.00View SEC Filing  
7/11/2014Joseph LiuSVPSell33,750$28.80$972,000.00View SEC Filing  
7/3/2014C H ChenDirectorSell20,000$30.00$600,000.00View SEC Filing  
7/3/2014Julie HollandVPSell26,300$30.00$789,000.00View SEC Filing  
7/2/2014Chieh ChangVPSell1,014$28.83$29,233.62View SEC Filing  
7/2/2014Keh Shew LuCEOSell6,001$28.83$173,008.83View SEC Filing  
6/9/2014Shiao Kwang Edmund TangVPSell3,900$30.00$117,000.00View SEC Filing  
6/4/2014Raymond SoongDirectorSell110,000$27.50$3,025,000.00View SEC Filing  
5/28/2014Francis TangVPSell5,275$27.52$145,168.00View SEC Filing  
5/28/2014Mark A KingSVPSell6,450$27.52$177,504.00View SEC Filing  
5/28/2014Richard Dallas WhiteCFOSell1,858$27.52$51,132.16View SEC Filing  
4/8/2014Mark KingSVPSell34,900$27.01$942,649.00View SEC Filing  
12/20/2013John StichDirectorSell3,400$23.00$78,200.00View SEC Filing  
11/5/2013John StichDirectorSell3,400$23.94$81,396.00View SEC Filing  
10/4/2013John StichDirectorSell3,400$23.76$80,784.00View SEC Filing  
9/5/2013John M StichDirectorSell3,400$25.58$86,972.00View SEC Filing  
8/20/2013Colin GreeneVPSell14,806$25.10$371,630.60View SEC Filing  
8/5/2013John M StichDirectorSell3,400$27.49$93,466.00View SEC Filing  
7/26/2013Joseph LiuSVPSell33,917$26.46$897,443.82View SEC Filing  
7/11/2013Michael R GiordanoDirectorSell3,282$28.00$91,896.00View SEC Filing  
7/11/2013Shiao Kwang Edmund TangVPSell6,150$28.00$172,200.00View SEC Filing  
7/5/2013Shiao Kwang Edmund TangVPSell2,000$27.00$54,000.00View SEC Filing  
6/27/2013Michael R GiordanoDirectorSell9,450$26.00$245,700.00View SEC Filing  
6/11/2013Michael R GiordanoDirectorSell10,000$24.00$240,000.00View SEC Filing  
5/29/2013Joseph LiuSVPSell1,764$23.43$41,330.52View SEC Filing  
5/29/2013Raymond SoongDirectorSell35,000$23.50$822,500.00View SEC Filing  
5/29/2013Richard Dallas WhiteCFOSell2,504$23.41$58,618.64View SEC Filing  
5/29/2013Shiao Kwang Edmund TangVPSell2,266$23.44$53,115.04View SEC Filing  
5/28/2013John M StichDirectorSell3,300$23.56$77,748.00View SEC Filing  
5/10/2013Francis TangVPSell1,000$23.85$23,850.00View SEC Filing  
(Data available from 1/1/2013 forward)

Headlines

Latest Headlines for Diodes (NASDAQ:DIOD)
DateHeadline
4-traders.com logoEdom Technology : Active OR’ing Controller from Diodes Incorporated Increases Maximum Voltage to 200V for High-Reliability Power Systems (NASDAQ:DIOD)
www.4-traders.com - August 23 at 8:50 AM
News IconLaser diode market to 2025 is projected to grow at a CAGR of 11.2% according to market forecasts (NASDAQ:DIOD)
www.whatech.com - August 23 at 8:50 AM
4-traders.com logoDiodes Incorporated : President Robert Miller Recognizes Future Electronics Team for Worldwide Pericom and Diodes Contract (NASDAQ:DIOD)
www.4-traders.com - August 19 at 3:43 PM
openpr.com logoDiscrete Diodes Market : Value Chain, Dynamics and Key Players (2015 - 2021) (NASDAQ:DIOD)
www.openpr.com - August 18 at 4:40 PM
finance.yahoo.com logoDIODES INC /DEL/ Financials (NASDAQ:DIOD)
finance.yahoo.com - August 18 at 4:39 PM
finance.yahoo.com logoPericom Expands Support for High Speed Connectivity (NASDAQ:DIOD)
finance.yahoo.com - August 16 at 4:41 PM
4-traders.com logoDIODES INC /DEL/ : Results of Operations and Financial Condition, Regulation FD Disclosure, Financial Statements and Exhibits (form 8-K) (NASDAQ:DIOD)
www.4-traders.com - August 15 at 4:47 PM
biz.yahoo.com logoDIODES INC /DEL/ Files SEC form 8-K, Results of Operations and Financial Condition, Regulation FD Disclosure, Financi (NASDAQ:DIOD)
biz.yahoo.com - August 15 at 4:47 PM
sbwire.com logoGlobal Switching Diodes 2016 Market Report; Launched via MarketResearchReports.com (NASDAQ:DIOD)
www.sbwire.com - August 12 at 9:49 PM
capitalcube.com logoETF’s with exposure to Diodes, Inc. : August 12, 2016 (NASDAQ:DIOD)
www.capitalcube.com - August 12 at 4:39 PM
News IconDiodes Inc – Buck converters achieve high efficiency under both light and full-load conditions (NASDAQ:DIOD)
www.electropages.com - August 12 at 8:52 AM
capitalcube.com logoDiodes, Inc. breached its 50 day moving average in a Bullish Manner : DIOD-US : August 11, 2016 (NASDAQ:DIOD)
www.capitalcube.com - August 11 at 8:48 AM
seekingalpha.com logoDiodes' (DIOD) CEO Keh-Shew Lu on Q2 2016 Results - Earnings Call Transcript (NASDAQ:DIOD)
seekingalpha.com - August 10 at 8:23 AM
reuters.com logoBRIEF-Diodes incorporated reports second quarter 2016 financial results (NASDAQ:DIOD)
www.reuters.com - August 10 at 8:23 AM
News Icon1A DC-DC Buck Converters from Diodes Incorporated Achieve High Efficiency Under Light-Load and Full-Load Conditions (NASDAQ:DIOD)
www.cbs58.com - August 10 at 8:23 AM
nasdaq.com logoDiodes Inc. Q2 Profit Falls 41% (NASDAQ:DIOD)
www.nasdaq.com - August 10 at 8:23 AM
twst.com logoDiodes Incorporated: Diodes Incorporated Reports Second Quarter 2016 Financial Results (NASDAQ:DIOD)
www.twst.com - August 10 at 8:23 AM
finance.yahoo.com logoEdited Transcript of DIOD earnings conference call or presentation 9-Aug-16 9:00pm GMT (NASDAQ:DIOD)
finance.yahoo.com - August 10 at 8:23 AM
sg.finance.yahoo.com logoDiodes posts 2Q profit (NASDAQ:DIOD)
sg.finance.yahoo.com - August 9 at 5:41 PM
publicnow.com logoDiodes Incorporated Reports Second Quarter 2016 Financial Results (NASDAQ:DIOD)
www.publicnow.com - August 9 at 5:41 PM
biz.yahoo.com logoDiodes Inc Earnings Call scheduled for 5:00 pm ET today (NASDAQ:DIOD)
biz.yahoo.com - August 9 at 5:41 PM
biz.yahoo.com logoQ2 2016 Diodes Inc Earnings Release - 4:05 pm ET (NASDAQ:DIOD)
biz.yahoo.com - August 9 at 8:49 AM
finance.yahoo.com logoWhat's in the Cards for Diodes (DIOD) this Earnings Season? (NASDAQ:DIOD)
finance.yahoo.com - August 8 at 4:44 PM
finance.yahoo.com logoSemiconductor Stocks' Aug 9 Earnings Preview: DIOD, LSCC (NASDAQ:DIOD)
finance.yahoo.com - August 8 at 9:26 AM
News IconOctal Bus Transceiver with Hot Insertion and Bus-Hold Capability adds to Diodes Incorporated's Logic Portfolio (NASDAQ:DIOD)
embedded-computing.com - August 3 at 10:15 PM
News IconLED controllers move dimming to 150W with high power factor (NASDAQ:DIOD)
www.edn.com - August 3 at 4:43 PM
News IconDiodes Announces Single-Stage Dimmable LED Controllers to Support Fly-Back, Buck-Boost Topologies (NASDAQ:DIOD)
www.azooptics.com - August 3 at 4:43 PM
News IconDiodes Inc – Dimmable LED controllers drive lamps with high power factor (NASDAQ:DIOD)
www.electropages.com - August 3 at 4:43 PM
publicnow.com logoOctal Bus Transceiver with Hot Insertion and Bus-Hold Capability adds to Diodes Incorporated’s Logic Portfolio (NASDAQ:DIOD)
www.publicnow.com - August 3 at 4:43 PM
sbwire.com logoGlobal Organic Light Emitting Diodes Industry 2016 Market Report; Launched via MarketResearchReports.com (NASDAQ:DIOD)
www.sbwire.com - August 2 at 4:46 PM
publicnow.com logoDimmable LED Controllers from Diodes Incorporated Drive Lamps up to 150W with High Power Factor (NASDAQ:DIOD)
www.publicnow.com - August 2 at 4:46 PM
News IconActive OR’ing Controller from Diodes Incorporated Increases Maximum Voltage to 200V for High Reliability Power Systems (NASDAQ:DIOD)
eejournal.com - July 27 at 10:19 PM
News IconDiodes Incorporated – Active OR’ing controller increases maximum voltage for power systems (NASDAQ:DIOD)
www.electropages.com - July 27 at 10:19 PM
capitalcube.com logoDiodes, Inc. breached its 50 day moving average in a Bullish Manner : DIOD-US : July 27, 2016 (NASDAQ:DIOD)
www.capitalcube.com - July 27 at 8:10 AM
4-traders.com logoDiodes : Active OR’ing Controller from Diodes Incorporated Increases Maximum Voltage to 200V for High-Reliability Power Systems (NASDAQ:DIOD)
www.4-traders.com - July 26 at 4:36 PM
publicnow.com logoActive OR’ing Controller from Diodes Incorporated Increases Maximum Voltage to 200V for High-Reliability Power Systems (NASDAQ:DIOD)
www.publicnow.com - July 26 at 10:28 AM
4-traders.com logoWall St. rises, racks up fourth straight week of gains (NASDAQ:DIOD)
www.4-traders.com - July 23 at 4:31 PM
News IconWhat earns a CEO an $18M payday? A 617 percent return to shareholders (NASDAQ:DIOD)
www.dallasnews.com - July 23 at 4:31 PM
News IconWhat does it take to earn an $18 million payday? For this CEO, it's a 617 percent return to shareholders (NASDAQ:DIOD)
www.dallasnews.com - July 22 at 4:33 PM
biz.yahoo.com logoDIODES INC /DEL/ Files SEC form 8-K, Entry into a Material Definitive Agreement, Creation of a Direct Financial Oblig (NASDAQ:DIOD)
biz.yahoo.com - July 22 at 4:32 PM
News IconDiodes Inc. – High-voltage unipolar Hall-effect switches optimized for 3V to 28V operation (NASDAQ:DIOD)
www.electropages.com - July 20 at 9:22 AM
finance.yahoo.com logoHigh-Voltage Unipolar Hall-Effect Switches from Diodes Incorporated are Optimized for 3V to 28V Operation (NASDAQ:DIOD)
finance.yahoo.com - July 19 at 10:00 AM
biz.yahoo.com logoDIODES INC /DEL/ Files SEC form 8-K, Regulation FD Disclosure, Financial Statements and Exhibits (NASDAQ:DIOD)
biz.yahoo.com - July 18 at 4:31 PM
finance.yahoo.com logoDiodes Incorporated to Announce Second Quarter 2016 Financial Results on August 9 (NASDAQ:DIOD)
finance.yahoo.com - July 18 at 4:05 PM
capitalcube.com logoDiodes, Inc. breached its 50 day moving average in a Bullish Manner : DIOD-US : July 15, 2016 (NASDAQ:DIOD)
www.capitalcube.com - July 15 at 8:08 AM
News IconDigi-Key – Motor drivers provide highly integrated, simple solution for cooling fans and drive applications (Diodes AM9468-T16-13) (NASDAQ:DIOD)
www.electropages.com - July 13 at 9:55 PM
publicnow.com logoSmall Footprint Secondary-Side MOSFET Driver from Diodes Incorporated Reduces BOM Cost in 5V to 12V Power Supplies (NASDAQ:DIOD)
www.publicnow.com - July 12 at 10:23 AM
openpr.com logoDiscrete Diodes Market : Demand, Forecast and Share 2015 - 2021 (NASDAQ:DIOD)
www.openpr.com - July 12 at 8:54 AM
News IconGlobal red laser diode market forecast to 2021 available in new report (NASDAQ:DIOD)
www.whatech.com - June 30 at 4:51 PM
News IconDiodes Inc. – Super barrier rectifier optimized for solid-state retrofit MR16 LED lamps (NASDAQ:DIOD)
www.electropages.com - June 29 at 4:33 PM

Social

Diodes (NASDAQ:DIOD) Chart for Tuesday, August, 23, 2016


Last Updated on 8/23/2016 by MarketBeat.com Staff